PBD240 USNN-UUWW
Flight info
| Callsign | PBD240 |
|---|---|
| Flight time | N/A |
| Altitude | 36000 |
| Route | KUPAD R370 PIGUR T796 GIMAK T796 GIKES P982 BADIK N604 UNANI T382 VAROV/K0837F380 T382 UMPER N604 GEMPU M864 IBROT T535 URIDU L158 DIMGI |
| Aircraft | B738/M-SADFGHIN1J4RWY/HB1 |
Departure
| Time | N/A |
|---|---|
| Airport | Nizhnevartovsk Airport (USNN) |
Arrival
| Time | 2026-05-06 16:31 |
|---|---|
| Airport | Vnukovo International Airport (UUWW) |
| Time | Latitude | Longitude | Altitude | Speed | Heading |
|---|---|---|---|---|---|
| 2026-05-06 16:31 | 55.59025 | 37.25509 | 690 ft | 13 kts | 261° |
| 2026-05-06 16:31 | 55.59020 | 37.25355 | 690 ft | 12 kts | 272° |
| 2026-05-06 16:31 | 55.59026 | 37.25219 | 690 ft | 8 kts | 277° |
| 2026-05-06 16:32 | 55.59034 | 37.25126 | 690 ft | 7 kts | 278° |
| 2026-05-06 16:32 | 55.59055 | 37.25058 | 690 ft | 6 kts | 325° |
| 2026-05-06 16:32 | 55.59089 | 37.25030 | 690 ft | 5 kts | 338° |
| 2026-05-06 16:32 | 55.59132 | 37.25035 | 690 ft | 9 kts | 41° |
| 2026-05-06 16:33 | 55.59166 | 37.25158 | 690 ft | 11 kts | 68° |
| 2026-05-06 16:33 | 55.59193 | 37.25281 | 690 ft | 10 kts | 68° |
| 2026-05-06 16:33 | 55.59218 | 37.25390 | 690 ft | 9 kts | 68° |
| 2026-05-06 16:34 | 55.59266 | 37.25611 | 690 ft | 13 kts | 69° |
| 2026-05-06 16:34 | 55.59322 | 37.25858 | 690 ft | 24 kts | 67° |
| 2026-05-06 16:34 | 55.59383 | 37.26125 | 690 ft | 22 kts | 69° |
| 2026-05-06 16:34 | 55.59435 | 37.26362 | 690 ft | 21 kts | 67° |
| 2026-05-06 16:35 | 55.59487 | 37.26592 | 690 ft | 19 kts | 67° |
| 2026-05-06 16:35 | 55.59529 | 37.26767 | 690 ft | 13 kts | 65° |
| 2026-05-06 16:35 | 55.59529 | 37.26769 | 690 ft | 13 kts | 65° |
| 2026-05-06 16:35 | 55.59533 | 37.26781 | 690 ft | 13 kts | 65° |
| 2026-05-06 16:36 | 55.59578 | 37.26903 | 690 ft | 10 kts | 43° |
| 2026-05-06 16:36 | 55.59629 | 37.26991 | 690 ft | 9 kts | 44° |
| 2026-05-06 16:36 | 55.59673 | 37.27072 | 690 ft | 8 kts | 46° |
| 2026-05-06 16:36 | 55.59713 | 37.27145 | 690 ft | 7 kts | 45° |
| 2026-05-06 16:37 | 55.59757 | 37.27228 | 690 ft | 11 kts | 47° |
| 2026-05-06 16:37 | 55.59809 | 37.27323 | 690 ft | 10 kts | 45° |
| 2026-05-06 16:37 | 55.59856 | 37.27409 | 689 ft | 9 kts | 46° |
| 2026-05-06 16:37 | 55.59909 | 37.27507 | 689 ft | 13 kts | 45° |
| 2026-05-06 16:38 | 55.59962 | 37.27627 | 689 ft | 11 kts | 58° |
| 2026-05-06 16:38 | 55.60006 | 37.27719 | 689 ft | 8 kts | 41° |
| 2026-05-06 16:38 | 55.60052 | 37.27781 | 689 ft | 7 kts | 39° |
| 2026-05-06 16:38 | 55.60089 | 37.27842 | 689 ft | 6 kts | 45° |
| 2026-05-06 16:39 | 55.60109 | 37.27906 | 689 ft | 5 kts | 85° |
| 2026-05-06 16:39 | 55.60099 | 37.27969 | 689 ft | 5 kts | 115° |
| 2026-05-06 16:39 | 55.60082 | 37.28032 | 689 ft | 8 kts | 110° |
| 2026-05-06 16:39 | 55.60071 | 37.28164 | 689 ft | 11 kts | 85° |
| 2026-05-06 16:40 | 55.60081 | 37.28290 | 689 ft | 9 kts | 83° |
| 2026-05-06 16:40 | 55.60091 | 37.28404 | 689 ft | 9 kts | 74° |
| 2026-05-06 16:40 | 55.60122 | 37.28489 | 689 ft | 7 kts | 45° |
| 2026-05-06 16:40 | 55.60159 | 37.28550 | 689 ft | 6 kts | 41° |
| 2026-05-06 16:41 | 55.60191 | 37.28598 | 689 ft | 5 kts | 38° |
| 2026-05-06 16:41 | 55.60222 | 37.28620 | 689 ft | 4 kts | 359° |
| 2026-05-06 16:41 | 55.60247 | 37.28594 | 689 ft | 4 kts | 309° |
| 2026-05-06 16:41 | 55.60258 | 37.28550 | 689 ft | 3 kts | 286° |
| 2026-05-06 16:42 | 55.60262 | 37.28518 | 689 ft | 3 kts | 282° |
| 2026-05-06 16:42 | 55.60267 | 37.28480 | 689 ft | 2 kts | 283° |
| 2026-05-06 16:42 | 55.60269 | 37.28467 | 689 ft | 0 kts | 284° |
| 2026-05-06 16:45 | 55.60269 | 37.28466 | 689 ft | 0 kts | 284° |
| 2026-05-06 16:45 | 55.60270 | 37.28462 | 689 ft | 1 kts | 283° |